Time;durP1;ratioP1;P1;durP2;ratioP2;P2;SDS_P1;SDS_P2;PMS_P1;PMS_P2;Temp;Humidity;BMP_temperature;BMP_pressure;BME280_temperature;BME280_humidity;BME280_pressure;Samples;Min_cycle;Max_cycle;Signal;HPM_P1;HPM_P2
2024/01/22 00:00:13;;;;;;;5.43;4.80;;;;;;;-1.73;100.00;97716.81;5111317;28;20355;-56
2024/01/22 00:02:40;;;;;;;5.47;4.87;;;;;;;-1.81;100.00;97706.66;5111124;28;20289;-56
2024/01/22 00:05:07;;;;;;;5.70;4.80;;;;;;;-1.89;100.00;97695.66;5111514;28;20706;-56
2024/01/22 00:07:38;;;;;;;4.60;4.20;;;;;;;-1.93;100.00;97686.25;5111109;28;20259;-55
2024/01/22 00:10:06;;;;;;;5.83;4.93;;;;;;;-1.97;100.00;97676.84;5110809;28;20219;-55
2024/01/22 00:12:33;;;;;;;4.93;4.50;;;;;;;-1.92;100.00;97663.78;5110586;28;20198;-56
2024/01/22 00:14:59;;;;;;;5.00;4.27;;;;;;;-1.90;100.00;97659.38;5110376;28;20314;-55
2024/01/22 00:17:26;;;;;;;4.33;3.93;;;;;;;-1.96;100.00;97656.97;5111029;28;20205;-55
2024/01/22 00:19:53;;;;;;;4.07;3.77;;;;;;;-1.96;100.00;97662.16;5110228;28;20230;-55
2024/01/22 00:22:21;;;;;;;3.93;3.63;;;;;;;-1.83;100.00;97650.53;5111505;28;20205;-56
2024/01/22 00:24:48;;;;;;;3.83;3.47;;;;;;;-1.82;100.00;97657.44;5111524;28;20208;-55
2024/01/22 00:27:15;;;;;;;4.00;3.70;;;;;;;-1.86;100.00;97646.31;5111255;28;20663;-55
2024/01/22 00:29:42;;;;;;;5.50;3.97;;;;;;;-1.82;100.00;97641.88;5118898;28;20280;-57
2024/01/22 00:32:08;;;;;;;6.27;4.13;;;;;;;-1.76;100.00;97623.56;5137923;28;20177;-56
2024/01/22 00:34:36;;;;;;;5.23;4.73;;;;;;;-1.87;100.00;97633.38;5134784;28;20225;-57
2024/01/22 00:37:03;;;;;;;6.37;5.13;;;;;;;-1.84;100.00;97634.13;5134053;28;20200;-55
2024/01/22 00:39:30;;;;;;;5.63;4.43;;;;;;;-1.75;100.00;97646.84;5125707;28;20198;-55
2024/01/22 00:41:58;;;;;;;5.33;4.83;;;;;;;-1.72;100.00;97643.31;5110909;28;20235;-56
2024/01/22 00:44:25;;;;;;;5.87;5.27;;;;;;;-1.67;100.00;97649.25;5111289;28;20210;-57
2024/01/22 00:46:51;;;;;;;5.33;4.83;;;;;;;-1.72;100.00;97645.91;5110874;28;20296;-56
2024/01/22 00:49:18;;;;;;;6.07;5.47;;;;;;;-1.73;100.00;97642.47;5110622;28;20206;-55
2024/01/22 00:51:44;;;;;;;6.67;5.67;;;;;;;-1.69;100.00;97643.22;5110790;28;20316;-55
2024/01/22 00:54:13;;;;;;;5.57;5.07;;;;;;;-1.68;100.00;97644.94;5111592;28;20224;-57
2024/01/22 00:56:40;;;;;;;5.53;5.00;;;;;;;-1.82;100.00;97642.75;5110415;28;20200;-54
2024/01/22 00:59:07;;;;;;;6.00;5.40;;;;;;;-1.70;100.00;97631.19;5112727;28;20311;-57
2024/01/22 01:01:34;;;;;;;5.53;5.03;;;;;;;-1.57;100.00;97622.13;5111911;27;20213;-55
2024/01/22 01:04:00;;;;;;;6.07;5.20;;;;;;;-1.64;100.00;97624.06;5115234;28;20209;-57
2024/01/22 01:06:27;;;;;;;5.80;5.17;;;;;;;-1.68;100.00;97619.00;5114339;28;20194;-57
2024/01/22 01:08:54;;;;;;;6.80;5.17;;;;;;;-1.73;100.00;97610.50;5113148;28;20212;-57
2024/01/22 01:11:20;;;;;;;6.40;4.77;;;;;;;-1.74;100.00;97609.69;5114700;28;20218;-55
2024/01/22 01:13:47;;;;;;;5.57;4.30;;;;;;;-1.71;100.00;97600.94;5114881;28;20213;-55
2024/01/22 01:16:16;;;;;;;7.00;5.10;;;;;;;-1.83;100.00;97599.56;5115172;27;20204;-56
2024/01/22 01:18:42;;;;;;;5.63;4.43;;;;;;;-1.75;100.00;97601.94;5113102;28;20608;-56
2024/01/22 01:21:09;;;;;;;4.97;4.37;;;;;;;-1.82;100.00;97596.06;5113920;28;20499;-55
2024/01/22 01:23:35;;;;;;;5.10;4.60;;;;;;;-1.80;100.00;97588.22;5112542;28;20586;-56
2024/01/22 01:26:02;;;;;;;5.00;4.50;;;;;;;-1.78;100.00;97583.88;5113924;28;20208;-55
2024/01/22 01:28:29;;;;;;;4.80;4.40;;;;;;;-1.79;100.00;97580.44;5113728;28;20619;-56
2024/01/22 01:30:55;;;;;;;4.77;4.37;;;;;;;-1.70;100.00;97581.91;5112908;28;20316;-57
2024/01/22 01:33:23;;;;;;;5.40;4.57;;;;;;;-1.66;100.00;97571.38;5120712;28;20206;-56
2024/01/22 01:35:50;;;;;;;4.90;4.50;;;;;;;-1.62;100.00;97574.72;5130711;28;20205;-57
2024/01/22 01:38:16;;;;;;;6.17;4.60;;;;;;;-1.68;100.00;97569.72;5129879;28;20236;-57
2024/01/22 01:40:43;;;;;;;4.73;4.33;;;;;;;-1.68;100.00;97573.19;5117957;28;20185;-56
2024/01/22 01:43:11;;;;;;;5.03;4.53;;;;;;;-1.73;100.00;97569.00;5113867;28;20220;-56
2024/01/22 01:45:38;;;;;;;5.17;4.67;;;;;;;-1.62;100.00;97569.53;5123604;28;20212;-56
2024/01/22 01:48:05;;;;;;;5.10;4.60;;;;;;;-1.57;100.00;97565.06;5132307;28;20207;-57
2024/01/22 01:50:35;;;;;;;5.40;4.83;;;;;;;-1.63;100.00;97558.31;5134731;28;20294;-56
2024/01/22 01:53:04;;;;;;;4.93;4.20;;;;;;;-1.58;100.00;97566.81;5134583;28;20267;-56
2024/01/22 01:55:31;;;;;;;6.10;4.40;;;;;;;-1.62;100.00;97566.94;5120849;28;20211;-56
2024/01/22 01:57:59;;;;;;;4.90;4.50;;;;;;;-1.64;100.00;97558.38;5114076;27;20241;-55
2024/01/22 02:00:26;;;;;;;5.13;4.43;;;;;;;-1.63;100.00;97554.91;5115146;28;20234;-56
2024/01/22 02:02:53;;;;;;;4.17;3.87;;;;;;;-1.60;100.00;97562.59;5133062;27;20201;-56
2024/01/22 02:05:20;;;;;;;4.93;4.00;;;;;;;-1.59;100.00;97561.66;5137246;28;20223;-56
2024/01/22 02:07:48;;;;;;;4.30;3.87;;;;;;;-1.66;100.00;97555.81;5138411;28;20208;-56
2024/01/22 02:10:17;;;;;;;4.80;3.83;;;;;;;-1.57;100.00;97559.88;5115844;28;20310;-56
2024/01/22 02:12:44;;;;;;;3.83;3.53;;;;;;;-1.54;100.00;97554.59;5113315;28;20197;-57
2024/01/22 02:15:10;;;;;;;3.23;3.03;;;;;;;-1.50;100.00;97543.25;5113118;28;20217;-57
2024/01/22 02:17:38;;;;;;;3.53;3.23;;;;;;;-1.45;100.00;97537.91;5113462;27;20224;-57
2024/01/22 02:20:07;;;;;;;3.80;3.40;;;;;;;-1.58;100.00;97540.03;5118241;28;20297;-57
2024/01/22 02:22:34;;;;;;;3.80;3.43;;;;;;;-1.52;100.00;97532.03;5120794;28;20204;-57
2024/01/22 02:25:02;;;;;;;4.03;2.90;;;;;;;-1.54;100.00;97539.03;5126694;28;20209;-56
2024/01/22 02:27:29;;;;;;;3.73;3.33;;;;;;;-1.45;100.00;97519.75;5115706;28;20233;-55
2024/01/22 02:29:56;;;;;;;3.13;2.93;;;;;;;-1.38;100.00;97509.09;5112696;28;20279;-54
2024/01/22 02:32:24;;;;;;;4.13;3.50;;;;;;;-1.43;100.00;97498.06;5112878;27;20197;-55
2024/01/22 02:34:51;;;;;;;3.10;2.90;;;;;;;-1.41;100.00;97485.88;5113073;28;20207;-57
2024/01/22 02:37:17;;;;;;;3.50;3.20;;;;;;;-1.36;100.00;97485.72;5113502;28;20292;-57
2024/01/22 02:39:44;;;;;;;3.80;3.40;;;;;;;-1.41;100.00;97490.19;5113600;28;20200;-54
2024/01/22 02:42:12;;;;;;;3.80;3.37;;;;;;;-1.34;100.00;97492.56;5112813;28;20197;-56
2024/01/22 02:44:39;;;;;;;3.80;3.27;;;;;;;-1.33;100.00;97486.47;5113294;28;20208;-56
2024/01/22 02:47:06;;;;;;;3.00;2.80;;;;;;;-1.21;100.00;97501.66;5112734;27;20658;-57
2024/01/22 02:49:34;;;;;;;4.03;3.03;;;;;;;-1.22;100.00;97507.72;5112801;28;20300;-56
2024/01/22 02:52:01;;;;;;;3.80;3.17;;;;;;;-1.13;100.00;97517.78;5112647;28;20212;-55
2024/01/22 02:54:28;;;;;;;3.47;3.17;;;;;;;-1.06;100.00;97514.09;5112543;28;20207;-54
2024/01/22 02:56:54;;;;;;;5.57;3.10;;;;;;;-1.02;100.00;97502.72;5112928;28;20204;-56
2024/01/22 02:59:24;;;;;;;3.40;3.10;;;;;;;-1.07;100.00;97504.63;5112760;28;20228;-54
2024/01/22 03:01:51;;;;;;;3.70;3.40;;;;;;;-0.97;100.00;97502.56;5112383;28;20274;-55
2024/01/22 03:04:17;;;;;;;3.50;3.30;;;;;;;-0.92;100.00;97512.81;5112478;27;20285;-57
2024/01/22 03:06:44;;;;;;;3.63;3.33;;;;;;;-0.85;100.00;97498.72;5112267;28;20214;-53
2024/01/22 03:09:13;;;;;;;3.60;3.30;;;;;;;-0.81;100.00;97485.53;5112157;28;20204;-56
2024/01/22 03:11:39;;;;;;;3.60;3.30;;;;;;;-0.83;100.00;97491.69;5112231;27;20692;-53
2024/01/22 03:14:06;;;;;;;3.50;3.20;;;;;;;-0.81;100.00;97489.88;5112525;28;20204;-53
2024/01/22 03:16:34;;;;;;;3.10;2.90;;;;;;;-0.80;100.00;97492.44;5111992;28;20287;-54
2024/01/22 03:19:03;;;;;;;2.87;2.67;;;;;;;-0.79;100.00;97488.09;5111593;28;20212;-56
2024/01/22 03:21:31;;;;;;;3.97;3.17;;;;;;;-0.74;100.00;97476.63;5112112;28;20243;-54
2024/01/22 03:23:59;;;;;;;3.20;2.90;;;;;;;-0.84;100.00;97477.88;5112460;28;20261;-55
2024/01/22 03:26:26;;;;;;;3.63;2.90;;;;;;;-0.85;100.00;97477.94;5113361;28;20205;-55
2024/01/22 03:28:53;;;;;;;3.30;3.07;;;;;;;-0.90;100.00;97483.28;5112598;28;20214;-56
2024/01/22 03:31:23;;;;;;;3.27;2.97;;;;;;;-0.83;100.00;97494.28;5111981;27;20553;-55
2024/01/22 03:33:54;;;;;;;2.87;2.67;;;;;;;-0.98;100.00;97493.06;5111652;28;20201;-53
2024/01/22 03:36:20;;;;;;;2.80;2.60;;;;;;;-0.94;100.00;97488.63;5113338;27;20211;-56
2024/01/22 03:38:47;;;;;;;2.63;2.43;;;;;;;-0.89;100.00;97477.19;5112611;28;20797;-55
2024/01/22 03:41:14;;;;;;;2.80;2.60;;;;;;;-0.93;100.00;97474.75;5112746;28;20206;-53
2024/01/22 03:43:42;;;;;;;2.83;2.63;;;;;;;-0.99;100.00;97469.78;5111811;28;20282;-55
2024/01/22 03:46:08;;;;;;;2.80;2.53;;;;;;;-0.97;100.00;97470.56;5112106;28;20204;-53
2024/01/22 03:48:35;;;;;;;2.80;2.60;;;;;;;-1.05;100.00;97466.47;5111539;28;20205;-56
2024/01/22 03:51:04;;;;;;;2.80;2.60;;;;;;;-1.03;100.00;97454.28;5112041;28;20549;-55
2024/01/22 03:53:31;;;;;;;2.87;2.60;;;;;;;-1.05;100.00;97461.28;5112622;28;20199;-53
2024/01/22 03:55:59;;;;;;;2.70;2.50;;;;;;;-1.07;100.00;97450.13;5112148;28;20705;-54
2024/01/22 03:58:26;;;;;;;2.67;2.47;;;;;;;-1.12;100.00;97448.56;5113116;28;20267;-54
2024/01/22 04:00:54;;;;;;;3.73;2.67;;;;;;;-1.06;100.00;97448.34;5112285;28;20618;-53
2024/01/22 04:03:21;;;;;;;2.80;2.60;;;;;;;-1.01;100.00;97447.31;5113431;28;20207;-53
2024/01/22 04:05:49;;;;;;;3.10;2.67;;;;;;;-1.04;100.00;97450.00;5112259;28;20212;-54
2024/01/22 04:08:23;;;;;;;2.70;2.40;;;;;;;-1.07;100.00;97450.13;5113798;28;20191;-53
2024/01/22 04:10:50;;;;;;;2.73;2.53;;;;;;;-1.12;100.00;97449.41;5111788;28;21415;-53
2024/01/22 04:13:17;;;;;;;3.20;2.77;;;;;;;-1.06;100.00;97457.00;5112060;28;20202;-54
2024/01/22 04:15:43;;;;;;;3.17;2.87;;;;;;;-1.14;100.00;97446.03;5111237;28;20223;-56
2024/01/22 04:18:10;;;;;;;2.50;2.30;;;;;;;-1.11;100.00;97445.94;5112184;28;20203;-54
2024/01/22 04:20:37;;;;;;;2.67;2.47;;;;;;;-1.07;100.00;97442.34;5111686;28;20196;-56
2024/01/22 04:23:04;;;;;;;2.60;2.40;;;;;;;-1.05;100.00;97435.34;5112115;28;20214;-53
2024/01/22 04:25:32;;;;;;;2.70;2.50;;;;;;;-0.97;100.00;97436.81;5112255;28;20223;-55
2024/01/22 04:27:59;;;;;;;2.33;2.20;;;;;;;-0.89;100.00;97440.84;5113584;28;20207;-55
2024/01/22 04:30:26;;;;;;;2.10;2.00;;;;;;;-0.71;100.00;97441.94;5112575;28;20213;-55
2024/01/22 04:32:52;;;;;;;2.53;2.33;;;;;;;-0.56;100.00;97425.78;5117899;28;20214;-55
2024/01/22 04:35:19;;;;;;;2.57;2.27;;;;;;;-0.41;100.00;97427.81;5124908;28;20272;-56
2024/01/22 04:37:45;;;;;;;2.80;2.20;;;;;;;-0.29;100.00;97422.16;5124077;28;20315;-55
2024/01/22 04:40:13;;;;;;;2.37;2.17;;;;;;;-0.27;100.00;97417.75;5118301;28;20285;-54
2024/01/22 04:42:44;;;;;;;2.33;2.17;;;;;;;-0.19;100.00;97422.66;5116143;28;20279;-56
2024/01/22 04:45:11;;;;;;;2.17;2.07;;;;;;;-0.24;100.00;97429.75;5115461;28;20242;-54
2024/01/22 04:47:38;;;;;;;2.33;2.13;;;;;;;-0.21;100.00;97433.09;5116783;28;20589;-54
2024/01/22 04:50:05;;;;;;;2.57;2.37;;;;;;;-0.20;100.00;97432.19;5117094;27;20204;-53
2024/01/22 04:52:32;;;;;;;2.50;2.30;;;;;;;-0.15;100.00;97440.69;5116784;28;20254;-53
2024/01/22 04:54:58;;;;;;;2.73;2.53;;;;;;;-0.19;100.00;97433.91;5116198;28;20674;-54
2024/01/22 04:57:25;;;;;;;2.20;2.10;;;;;;;-0.17;100.00;97431.22;5116239;28;20602;-53
2024/01/22 04:59:53;;;;;;;2.80;2.60;;;;;;;-0.18;100.00;97416.56;5115203;27;20239;-53
2024/01/22 05:02:27;;;;;;;3.10;2.90;;;;;;;-0.30;100.00;97430.00;5116326;28;20646;-53
2024/01/22 05:04:56;;;;;;;3.40;3.10;;;;;;;-0.34;100.00;97428.44;5117054;27;20266;-54
2024/01/22 05:07:24;;;;;;;3.20;2.90;;;;;;;-0.32;100.00;97427.47;5116462;28;20201;-54
2024/01/22 05:09:57;;;;;;;3.00;2.80;;;;;;;-0.32;100.00;97427.47;5116667;28;20224;-54
2024/01/22 05:12:24;;;;;;;2.70;2.50;;;;;;;-0.36;100.00;97425.91;5115859;27;20208;-55
2024/01/22 05:14:51;;;;;;;4.47;4.07;;;;;;;-0.37;100.00;97436.34;5116468;28;20272;-55
2024/01/22 05:17:23;;;;;;;4.23;3.83;;;;;;;-0.42;100.00;97444.31;5117105;28;21447;-53
2024/01/22 05:19:49;;;;;;;3.30;2.80;;;;;;;-0.36;100.00;97451.03;5116721;27;20211;-55
2024/01/22 05:22:16;;;;;;;4.67;4.23;;;;;;;-0.33;100.00;97448.31;5114548;28;20197;-55
2024/01/22 05:24:44;;;;;;;4.07;3.60;;;;;;;-0.39;100.00;97438.97;5115990;28;20204;-55
2024/01/22 05:27:12;;;;;;;3.50;3.20;;;;;;;-0.37;100.00;97444.13;5116303;28;20212;-54
2024/01/22 05:29:38;;;;;;;3.17;2.97;;;;;;;-0.38;100.00;97445.03;5117480;28;20519;-55
2024/01/22 05:32:05;;;;;;;2.80;2.60;;;;;;;-0.36;100.00;97438.91;5114459;28;20328;-56
2024/01/22 05:34:33;;;;;;;3.23;2.93;;;;;;;-0.35;100.00;97422.38;5116123;28;20284;-55
2024/01/22 05:37:00;;;;;;;2.73;2.53;;;;;;;-0.29;100.00;97426.53;5116819;28;20221;-54
2024/01/22 05:39:27;;;;;;;3.20;2.73;;;;;;;-0.23;100.00;97427.13;5114101;28;20296;-54
2024/01/22 05:41:56;;;;;;;3.07;2.83;;;;;;;-0.20;100.00;97414.00;5113561;28;20653;-54
2024/01/22 05:44:24;;;;;;;3.23;2.93;;;;;;;-0.18;100.00;97409.59;5116921;28;20234;-54
2024/01/22 05:46:51;;;;;;;3.10;2.87;;;;;;;-0.13;100.00;97417.22;5114334;28;20193;-54
2024/01/22 05:49:18;;;;;;;3.03;2.83;;;;;;;-0.04;100.00;97419.47;5117272;27;20202;-55
2024/01/22 05:51:50;;;;;;;2.70;2.50;;;;;;;-0.02;100.00;97410.69;5122490;28;20229;-56
2024/01/22 05:54:17;;;;;;;3.53;2.80;;;;;;;0.08;100.00;97431.97;5133366;28;20200;-55
2024/01/22 05:56:45;;;;;;;3.00;2.70;;;;;;;0.09;100.00;97422.44;5130022;28;20232;-60
2024/01/22 05:59:15;;;;;;;3.10;2.80;;;;;;;0.18;100.00;97415.09;5131155;28;20235;-56
2024/01/22 06:01:41;;;;;;;4.13;2.83;;;;;;;0.27;100.00;97421.69;5120253;28;20236;-56
2024/01/22 06:04:08;;;;;;;3.63;3.03;;;;;;;0.28;100.00;97428.59;5113574;28;20230;-55
2024/01/22 06:06:34;;;;;;;2.90;2.70;;;;;;;0.29;100.00;97417.28;5109921;27;20300;-56
2024/01/22 06:09:02;;;;;;;3.40;3.10;;;;;;;0.43;100.00;97412.34;5116520;28;20207;-54
2024/01/22 06:11:30;;;;;;;4.20;3.00;;;;;;;0.42;100.00;97411.53;5116076;28;20248;-56
2024/01/22 06:13:57;;;;;;;3.70;3.40;;;;;;;0.44;100.00;97407.09;5113478;28;20765;-55
2024/01/22 06:16:23;;;;;;;3.50;3.20;;;;;;;0.46;100.00;97407.88;5121277;28;20193;-54
2024/01/22 06:18:50;;;;;;;2.87;2.67;;;;;;;0.52;100.00;97409.38;5134291;28;20201;-56
2024/01/22 06:21:17;;;;;;;3.17;2.87;;;;;;;0.57;100.00;97404.00;5134154;28;20209;-54
2024/01/22 06:23:44;;;;;;;3.20;2.90;;;;;;;0.61;100.00;97411.59;5113801;28;20197;-54
2024/01/22 06:26:12;;;;;;;4.33;3.30;;;;;;;0.62;100.00;97405.50;5113338;28;20215;-55
2024/01/22 06:28:39;;;;;;;3.47;3.27;;;;;;;0.67;100.00;97394.91;5113224;28;20201;-56
2024/01/22 06:31:07;;;;;;;3.33;3.10;;;;;;;0.69;100.00;97409.53;5113636;28;20197;-57
2024/01/22 06:33:33;;;;;;;3.20;2.70;;;;;;;0.78;100.00;97416.94;5113116;28;20785;-57
2024/01/22 06:36:00;;;;;;;4.03;3.13;;;;;;;0.76;100.00;97415.31;5114512;27;20231;-55
2024/01/22 06:38:26;;;;;;;4.13;3.50;;;;;;;0.74;100.00;97423.22;5134526;28;20190;-57
2024/01/22 06:40:55;;;;;;;4.00;3.60;;;;;;;0.82;100.00;97426.31;5136117;28;20173;-58
2024/01/22 06:43:23;;;;;;;3.63;3.33;;;;;;;0.83;100.00;97412.41;5133289;28;20204;-55
2024/01/22 06:45:50;;;;;;;3.70;3.40;;;;;;;0.92;100.00;97412.00;5114883;28;20220;-56
2024/01/22 06:48:16;;;;;;;3.90;3.60;;;;;;;0.93;100.00;97400.66;5121256;28;20295;-57
2024/01/22 06:50:43;;;;;;;3.80;3.50;;;;;;;0.98;100.00;97398.72;5119420;28;20284;-57
2024/01/22 06:53:09;;;;;;;4.17;3.77;;;;;;;1.10;100.00;97404.31;5114586;28;20568;-59
2024/01/22 06:55:36;;;;;;;5.40;4.50;;;;;;;1.12;100.00;97395.53;5112979;28;20646;-55
2024/01/22 06:58:04;;;;;;;3.70;3.40;;;;;;;1.17;100.00;97403.16;5112597;28;20292;-56
2024/01/22 07:00:33;;;;;;;3.73;3.33;;;;;;;1.23;100.00;97389.84;5112750;28;20197;-54
2024/01/22 07:02:59;;;;;;;5.20;3.37;;;;;;;1.23;100.00;97405.47;5111992;27;20246;-54
2024/01/22 07:05:26;;;;;;;3.80;3.50;;;;;;;1.30;100.00;97407.75;5112649;27;20200;-55
2024/01/22 07:07:53;;;;;;;3.53;3.23;;;;;;;1.36;100.00;97406.59;5112583;28;20205;-56
2024/01/22 07:10:21;;;;;;;3.70;3.40;;;;;;;1.34;100.00;97405.84;5110972;28;20211;-56
2024/01/22 07:12:48;;;;;;;3.90;3.33;;;;;;;1.33;100.00;97396.31;5111696;28;20228;-56
2024/01/22 07:15:16;;;;;;;3.10;2.90;;;;;;;1.39;100.00;97390.84;5112130;28;20205;-56
2024/01/22 07:17:44;;;;;;;5.77;3.93;;;;;;;1.35;100.00;97402.31;5112476;28;20232;-59
2024/01/22 07:20:14;;;;;;;3.50;3.20;;;;;;;1.42;100.00;97408.94;5112511;28;20291;-55
2024/01/22 07:22:41;;;;;;;5.40;3.13;;;;;;;1.42;100.00;97419.34;5111713;28;20977;-54
2024/01/22 07:25:09;;;;;;;3.53;3.03;;;;;;;1.50;100.00;97419.88;5111033;28;20215;-54
2024/01/22 07:27:38;;;;;;;2.87;2.67;;;;;;;1.55;100.00;97422.28;5111107;28;20212;-55
2024/01/22 07:30:11;;;;;;;3.93;3.33;;;;;;;1.50;100.00;97430.28;5111324;28;20308;-55
2024/01/22 07:32:38;;;;;;;4.03;3.03;;;;;;;1.49;100.00;97432.03;5112134;28;20274;-54
2024/01/22 07:35:09;;;;;;;4.47;3.23;;;;;;;1.55;100.00;97450.94;5111085;28;20657;-56
2024/01/22 07:37:36;;;;;;;3.67;2.77;;;;;;;1.52;100.00;97464.13;5112516;28;20208;-55
2024/01/22 07:40:04;;;;;;;3.00;2.80;;;;;;;1.53;100.00;97461.44;5111503;28;20356;-55
2024/01/22 07:42:33;;;;;;;3.30;3.00;;;;;;;1.56;100.00;97466.50;5111463;27;20651;-55
2024/01/22 07:45:01;;;;;;;3.20;2.57;;;;;;;1.55;100.00;97464.81;5110210;28;20292;-53
2024/01/22 07:47:27;;;;;;;3.27;2.90;;;;;;;1.57;100.00;97460.38;5111611;28;20552;-54
2024/01/22 07:49:55;;;;;;;2.37;2.27;;;;;;;1.60;100.00;97451.56;5111797;28;20288;-54
2024/01/22 07:52:27;;;;;;;2.97;2.50;;;;;;;1.59;100.00;97455.97;5111454;28;20257;-56
2024/01/22 07:54:54;;;;;;;3.00;2.73;;;;;;;1.66;100.00;97435.66;5111396;28;20211;-55
2024/01/22 07:57:21;;;;;;;5.00;3.00;;;;;;;1.67;100.00;97440.78;5111357;27;20292;-54
2024/01/22 07:59:48;;;;;;;2.93;2.73;;;;;;;1.85;100.00;97446.94;5111191;28;20259;-55
2024/01/22 08:02:14;;;;;;;3.43;2.70;;;;;;;1.88;100.00;97433.75;5111129;28;20215;-55
2024/01/22 08:04:41;;;;;;;3.03;2.60;;;;;;;1.97;100.00;97446.38;5111154;28;21302;-54
2024/01/22 08:07:08;;;;;;;2.60;2.40;;;;;;;2.04;100.00;97442.56;5111200;28;20205;-54
2024/01/22 08:09:36;;;;;;;5.03;4.47;;;;;;;2.11;100.00;97453.56;5110772;28;20589;-54
2024/01/22 08:12:04;;;;;;;7.90;5.67;;;;;;;2.23;100.00;97427.72;5110516;28;20284;-55
2024/01/22 08:14:31;;;;;;;4.80;4.20;;;;;;;2.30;100.00;97423.91;5111331;28;20254;-54
2024/01/22 08:16:58;;;;;;;4.70;2.47;;;;;;;2.49;100.00;97431.69;5110248;28;20212;-53
2024/01/22 08:19:24;;;;;;;3.07;2.17;;;;;;;2.60;100.00;97447.69;5111248;28;20201;-54
2024/01/22 08:21:51;;;;;;;2.77;2.40;;;;;;;2.71;100.00;97460.22;5110392;28;20201;-54
2024/01/22 08:24:17;;;;;;;3.50;2.70;;;;;;;2.72;100.00;97457.53;5110865;28;20197;-55
2024/01/22 08:26:45;;;;;;;3.20;2.50;;;;;;;2.88;100.00;97458.47;5110818;28;20204;-55
2024/01/22 08:29:12;;;;;;;2.90;2.10;;;;;;;2.96;100.00;97453.72;5110807;28;20634;-55
2024/01/22 08:31:39;;;;;;;2.60;2.40;;;;;;;3.01;100.00;97437.81;5109784;28;20865;-55
2024/01/22 08:34:05;;;;;;;2.13;1.93;;;;;;;3.10;100.00;97437.34;5110740;28;20221;-55
2024/01/22 08:36:32;;;;;;;2.20;2.00;;;;;;;3.26;100.00;97433.00;5110656;28;20197;-55
2024/01/22 08:38:59;;;;;;;2.80;1.57;;;;;;;3.46;100.00;97426.75;5110335;28;20626;-63
2024/01/22 08:41:27;;;;;;;2.47;2.17;;;;;;;3.69;100.00;97415.91;5110624;28;20219;-58
2024/01/22 08:43:55;;;;;;;1.73;1.63;;;;;;;4.01;100.00;97408.91;5110943;28;20197;-58
2024/01/22 08:46:23;;;;;;;2.40;1.73;;;;;;;4.18;100.00;97400.16;5109860;28;20284;-60
2024/01/22 08:48:50;;;;;;;2.60;1.80;;;;;;;4.20;100.00;97390.44;5110531;28;20244;-60
2024/01/22 08:51:17;;;;;;;2.37;2.17;;;;;;;4.69;96.92;97389.31;5110096;28;20215;-59
2024/01/22 08:53:44;;;;;;;2.17;1.90;;;;;;;4.74;91.70;97387.28;5110507;28;20225;-56
2024/01/22 08:56:10;;;;;;;2.10;1.90;;;;;;;4.92;85.41;97377.50;5110426;28;20193;-57
2024/01/22 08:58:37;;;;;;;2.20;1.60;;;;;;;5.01;87.32;97380.41;5115147;28;20336;-58
2024/01/22 09:01:06;;;;;;;1.13;1.13;;;;;;;5.12;87.38;97381.56;5119850;28;20268;-57
2024/01/22 09:03:32;;;;;;;1.77;1.30;;;;;;;5.03;90.11;97389.03;5127239;28;20181;-59
2024/01/22 09:05:59;;;;;;;2.47;1.50;;;;;;;5.09;91.55;97379.13;5112330;28;20205;-55
2024/01/22 09:08:25;;;;;;;2.03;1.50;;;;;;;5.06;92.53;97374.06;5110603;28;20213;-57
2024/01/22 09:10:52;;;;;;;1.73;1.63;;;;;;;4.84;92.55;97351.75;5110645;28;20617;-54
2024/01/22 09:13:18;;;;;;;2.10;1.50;;;;;;;4.97;88.36;97344.84;5110883;28;20251;-55
2024/01/22 09:15:47;;;;;;;2.83;1.70;;;;;;;4.93;91.39;97340.72;5110240;28;20205;-56
2024/01/22 09:18:15;;;;;;;2.00;1.90;;;;;;;4.86;94.90;97344.63;5111047;28;20579;-57
2024/01/22 09:20:42;;;;;;;1.70;1.60;;;;;;;4.91;93.72;97349.59;5114079;27;20575;-56
2024/01/22 09:23:09;;;;;;;1.90;1.60;;;;;;;4.93;94.11;97348.56;5114066;27;20296;-54
2024/01/22 09:25:39;;;;;;;1.63;1.53;;;;;;;4.86;97.56;97356.88;5113832;28;20201;-54
2024/01/22 09:28:06;;;;;;;1.37;1.27;;;;;;;4.87;99.37;97366.44;5114675;28;20284;-54
2024/01/22 09:30:33;;;;;;;2.87;1.80;;;;;;;4.87;99.53;97351.56;5114253;28;20536;-57
2024/01/22 09:32:59;;;;;;;2.17;1.80;;;;;;;4.91;99.12;97344.38;5114499;28;20553;-56
2024/01/22 09:35:27;;;;;;;3.77;1.70;;;;;;;4.97;100.00;97344.00;5114244;28;20210;-55
2024/01/22 09:37:54;;;;;;;3.43;2.10;;;;;;;5.08;99.84;97332.88;5114013;28;20209;-55
2024/01/22 09:40:23;;;;;;;2.00;1.80;;;;;;;5.18;98.05;97328.75;5113981;27;20205;-57
2024/01/22 09:42:50;;;;;;;1.80;1.70;;;;;;;5.18;100.00;97323.50;5113819;27;20525;-55
2024/01/22 09:45:17;;;;;;;1.73;1.63;;;;;;;5.28;98.64;97308.91;5112685;27;20205;-55
2024/01/22 09:47:45;;;;;;;2.37;1.80;;;;;;;5.47;100.00;97305.03;5113968;27;20204;-55
2024/01/22 09:50:12;;;;;;;1.73;1.63;;;;;;;5.66;99.69;97301.28;5113662;27;20217;-55
2024/01/22 09:52:44;;;;;;;3.63;2.33;;;;;;;5.70;95.36;97294.91;5113562;28;20328;-56
2024/01/22 09:55:10;;;;;;;2.27;1.80;;;;;;;5.82;91.32;97291.47;5113545;28;20219;-55
2024/01/22 09:57:38;;;;;;;2.30;1.80;;;;;;;5.72;94.73;97287.75;5113305;27;20212;-55
2024/01/22 10:00:07;;;;;;;1.87;1.70;;;;;;;5.68;93.99;97270.50;5113170;27;20231;-56
2024/01/22 10:02:34;;;;;;;1.60;1.43;;;;;;;5.75;98.40;97277.91;5113780;28;20208;-56
2024/01/22 10:05:01;;;;;;;1.80;1.70;;;;;;;5.77;99.67;97270.78;5113729;28;20205;-55
2024/01/22 10:07:28;;;;;;;2.43;2.00;;;;;;;5.78;96.48;97267.22;5113422;28;20201;-56
2024/01/22 10:09:56;;;;;;;1.70;1.60;;;;;;;5.66;99.83;97256.66;5113825;28;20219;-56
2024/01/22 10:12:22;;;;;;;2.67;2.13;;;;;;;5.77;100.00;97254.19;5113561;28;20201;-57
2024/01/22 10:14:49;;;;;;;3.07;2.17;;;;;;;5.98;97.71;97248.44;5113688;27;20219;-56
2024/01/22 10:17:17;;;;;;;1.97;1.83;;;;;;;6.09;98.48;97228.50;5112081;27;20215;-56
2024/01/22 10:19:45;;;;;;;2.57;2.20;;;;;;;6.27;90.72;97212.34;5113382;27;20205;-57
2024/01/22 10:22:11;;;;;;;2.90;2.00;;;;;;;6.60;93.29;97224.16;5113319;27;20208;-56
2024/01/22 10:24:39;;;;;;;2.50;2.30;;;;;;;6.95;93.98;97214.69;5112683;27;20202;-56
2024/01/22 10:27:15;;;;;;;2.63;2.43;;;;;;;7.53;93.90;97211.41;5112295;27;20208;-56
2024/01/22 10:29:44;;;;;;;2.93;2.63;;;;;;;8.42;86.02;97214.47;5113052;27;20200;-56
2024/01/22 10:32:10;;;;;;;2.63;1.73;;;;;;;9.48;76.67;97179.72;5112102;27;20205;-55
2024/01/22 10:34:43;;;;;;;2.07;1.80;;;;;;;10.02;69.81;97183.13;5112571;27;20229;-55
2024/01/22 10:37:11;;;;;;;2.23;2.03;;;;;;;10.39;75.45;97172.19;5111943;28;20208;-56
2024/01/22 10:39:39;;;;;;;1.97;1.77;;;;;;;10.00;75.61;97171.03;5111604;28;20233;-58
2024/01/22 10:42:10;;;;;;;2.70;2.13;;;;;;;9.69;75.84;97162.16;5112692;28;20600;-59
2024/01/22 10:44:38;;;;;;;2.78;1.45;;;;;;;9.50;78.33;97151.38;5112604;27;20201;-58
2024/01/22 10:47:05;;;;;;;3.50;1.70;;;;;;;9.28;80.75;97165.47;5114170;27;20197;-58
2024/01/22 10:49:32;;;;;;;1.67;1.57;;;;;;;9.22;74.20;97180.94;5132957;28;20229;-57
2024/01/22 10:52:00;;;;;;;4.57;1.63;;;;;;;9.44;73.72;97187.06;5134310;28;20232;-58
2024/01/22 10:54:27;;;;;;;2.00;1.90;;;;;;;9.16;77.24;97187.56;5116047;28;20229;-56
2024/01/22 10:57:02;;;;;;;2.10;1.80;;;;;;;8.85;73.23;97170.69;5112521;28;20216;-58
2024/01/22 10:59:29;;;;;;;2.27;1.60;;;;;;;8.77;75.95;97172.22;5112416;27;20228;-58
2024/01/22 11:01:58;;;;;;;1.87;1.77;;;;;;;8.58;73.49;97169.31;5112485;28;20197;-58
2024/01/22 11:04:28;;;;;;;2.53;1.77;;;;;;;8.50;79.11;97168.09;5112127;27;20201;-58
2024/01/22 11:06:59;;;;;;;3.23;3.03;;;;;;;8.31;77.26;97146.75;5112237;28;20205;-59
2024/01/22 11:09:28;;;;;;;2.30;2.10;;;;;;;8.43;80.47;97142.34;5125624;28;20205;-58
2024/01/22 11:11:55;;;;;;;3.27;2.10;;;;;;;8.59;87.30;97148.13;5123061;28;20947;-59
2024/01/22 11:14:22;;;;;;;2.57;1.93;;;;;;;8.67;85.80;97126.44;5120025;27;20300;-58
2024/01/22 11:16:48;;;;;;;1.50;1.33;;;;;;;8.97;78.44;97122.22;5123850;28;20204;-58
2024/01/22 11:19:22;;;;;;;1.77;1.53;;;;;;;9.24;79.88;97102.53;5118597;28;20219;-59
2024/01/22 11:21:52;;;;;;;4.23;2.43;;;;;;;9.32;80.75;97100.06;5119446;28;20204;-56
2024/01/22 11:24:21;;;;;;;2.30;2.20;;;;;;;9.69;79.73;97096.13;5119298;28;20194;-56
2024/01/22 11:27:03;;;;;;;3.30;2.80;;;;;;;9.89;74.99;97097.09;5118098;28;20641;-58
2024/01/22 11:29:32;;;;;;;2.87;2.43;;;;;;;9.91;77.17;97090.75;5115412;28;20211;-57
2024/01/22 11:32:25;;;;;;;5.33;2.63;;;;;;;9.69;71.96;97095.28;5111107;28;20197;-59